Airfield :
LOGIN :

Register | Disclaimer

   EN    FR    IT 

 










Legend :    VFR   Marginal VFR   IFR   Intensive IFR   Very Intensive IFR
Visi :
Ceiling :
>= 8 km
>= 3000ft
5 to 8 km
1000 to 3000 ft
1500m to 5 km
500 to 1000 ft
800 to 1500m
200 to 500 ft
< 800m
< 200 ft
Symbols :   Thunderstorms  Fog  Heavy snow  Heavy precipitations  Wind > 20 kt
SIGMETs :     Misc.  Thunderstorms  Icing  Turbulence  Mountain Waves  Volcanic Ashes






- Airport Elevation : 333 ft


LIPL - Ghedi Brescia (Mil)

CURRENT METAR :
  • 212355Z 06005KT 9999 SCT034 SCT070 09/09 Q1013

EXPIRED METARs :
  • 212255Z 13003KT 9999 SCT030 BKN070 09/09 Q1013
  • 212155Z 10005KT 9999 SCT036 BKN060 09/09 Q1013
  • 212055Z 03008KT 9999 -RA SCT030 SCT046 10/10 Q1013 RMK OVC VIS MIN 9999 WIND THR31 03008KT WIND THR13 03010KT BLU
  • 211955Z 09008KT 9999 SCT034 SCT060 10/08 Q1012

TAF TAF LIPL
Valid from the 22 at 00:00 until the 22 at 09:00 UTC


212300Z 2200/2209 08010KT 8000 -RA BKN025 OVC070



MET'MAP, your aeronautical weather chart ! - Copyright ORBIFLY December 2007 - Disclaimer

ORBIFLY MET'MAP TEAM :

Programming & Development : Alexandra Zaïnal
Original concept : Baudouin d'Aumeries
Technical & hardware support : Manuel Goepfert
Assistance : Marc-Olivier Méhu




SOURCES & CREDITS :

   NOAA